FAD109 OERK-OEJN
Flight info
| Callsign | FAD109 |
|---|---|
| Flight time | 1h 21m |
| Altitude | 36000 |
| Route | UMASU M309 VEMEM |
| Aircraft | A320/M-SDE3FGHIRWY/LB1 |
Departure
| Time | 2026-04-29 04:09 |
|---|---|
| Airport | King Khalid International Airport (OERK) |
Arrival
| Time | 2026-04-29 05:30 |
|---|---|
| Airport | King Abdulaziz International Airport (OEJN) |
| Time | Latitude | Longitude | Altitude | Speed | Heading |
|---|---|---|---|---|---|
| 2026-04-29 03:50 | 24.95627 | 46.70708 | 2139 ft | 0 kts | 255° |
| 2026-04-29 03:56 | 24.95631 | 46.70721 | 2133 ft | 4 kts | 254° |
| 2026-04-29 03:56 | 24.95638 | 46.70750 | 2136 ft | 4 kts | 252° |
| 2026-04-29 03:57 | 24.95647 | 46.70778 | 2132 ft | 4 kts | 245° |
| 2026-04-29 03:57 | 24.95661 | 46.70803 | 2132 ft | 4 kts | 222° |
| 2026-04-29 03:57 | 24.95677 | 46.70812 | 2135 ft | 2 kts | 151° |
| 2026-04-29 03:57 | 24.95678 | 46.70811 | 2135 ft | 0 kts | 150° |
| 2026-04-29 04:00 | 24.95668 | 46.70817 | 2129 ft | 4 kts | 150° |
| 2026-04-29 04:00 | 24.95622 | 46.70846 | 2128 ft | 9 kts | 150° |
| 2026-04-29 04:00 | 24.95572 | 46.70879 | 2128 ft | 8 kts | 149° |
| 2026-04-29 04:01 | 24.95530 | 46.70905 | 2130 ft | 6 kts | 150° |
| 2026-04-29 04:01 | 24.95497 | 46.70926 | 2131 ft | 5 kts | 149° |
| 2026-04-29 04:01 | 24.95464 | 46.70947 | 2131 ft | 7 kts | 150° |
| 2026-04-29 04:01 | 24.95416 | 46.70977 | 2131 ft | 7 kts | 150° |
| 2026-04-29 04:02 | 24.95386 | 46.70996 | 2131 ft | 8 kts | 150° |
| 2026-04-29 04:02 | 24.95329 | 46.71045 | 2137 ft | 7 kts | 117° |
| 2026-04-29 04:02 | 24.95333 | 46.71074 | 2131 ft | 5 kts | 72° |
| 2026-04-29 04:02 | 24.95350 | 46.71110 | 2138 ft | 7 kts | 60° |
| 2026-04-29 04:03 | 24.95382 | 46.71170 | 2130 ft | 10 kts | 58° |
| 2026-04-29 04:03 | 24.95417 | 46.71237 | 2133 ft | 10 kts | 63° |
| 2026-04-29 04:03 | 24.95401 | 46.71303 | 2132 ft | 9 kts | 136° |
| 2026-04-29 04:03 | 24.95335 | 46.71344 | 2135 ft | 13 kts | 149° |
| 2026-04-29 04:04 | 24.95244 | 46.71401 | 2130 ft | 15 kts | 150° |
| 2026-04-29 04:04 | 24.95159 | 46.71455 | 2130 ft | 13 kts | 150° |
| 2026-04-29 04:04 | 24.95069 | 46.71512 | 2130 ft | 17 kts | 150° |
| 2026-04-29 04:04 | 24.94965 | 46.71578 | 2133 ft | 17 kts | 149° |
| 2026-04-29 04:05 | 24.94867 | 46.71641 | 2130 ft | 15 kts | 149° |
| 2026-04-29 04:05 | 24.94781 | 46.71696 | 2133 ft | 14 kts | 150° |
| 2026-04-29 04:05 | 24.94697 | 46.71748 | 2130 ft | 13 kts | 150° |
| 2026-04-29 04:05 | 24.94617 | 46.71798 | 2130 ft | 13 kts | 150° |
| 2026-04-29 04:06 | 24.94542 | 46.71846 | 2130 ft | 13 kts | 150° |
| 2026-04-29 04:06 | 24.94453 | 46.71902 | 2130 ft | 15 kts | 150° |
| 2026-04-29 04:06 | 24.94366 | 46.71957 | 2159 ft | 14 kts | 150° |
| 2026-04-29 04:06 | 24.94301 | 46.72019 | 2156 ft | 11 kts | 124° |
| 2026-04-29 04:07 | 24.94318 | 46.72094 | 2155 ft | 11 kts | 56° |
| 2026-04-29 04:07 | 24.94367 | 46.72181 | 2151 ft | 16 kts | 58° |
| 2026-04-29 04:07 | 24.94411 | 46.72251 | 2155 ft | 8 kts | 33° |
| 2026-04-29 04:07 | 24.94456 | 46.72239 | 2149 ft | 6 kts | 328° |
| 2026-04-29 04:08 | 24.94522 | 46.72197 | 2156 ft | 26 kts | 330° |
| 2026-04-29 04:08 | 24.94902 | 46.71964 | 2151 ft | 96 kts | 329° |
| 2026-04-29 04:08 | 24.95649 | 46.71490 | 2147 ft | 149 kts | 330° |
| 2026-04-29 04:08 | 24.96671 | 46.70869 | 2348 ft | 172 kts | 332° |
| 2026-04-29 04:09 | 24.97712 | 46.70216 | 3003 ft | 173 kts | 334° |
| 2026-04-29 04:09 | 24.98894 | 46.69653 | 3262 ft | 194 kts | 341° |
| 2026-04-29 04:09 | 25.00235 | 46.69119 | 3509 ft | 218 kts | 343° |
| 2026-04-29 04:09 | 25.01755 | 46.68537 | 3844 ft | 242 kts | 344° |
| 2026-04-29 04:10 | 25.03424 | 46.67899 | 4225 ft | 266 kts | 345° |
| 2026-04-29 04:10 | 25.05221 | 46.67207 | 4802 ft | 280 kts | 344° |
| 2026-04-29 04:10 | 25.07091 | 46.66404 | 5469 ft | 290 kts | 332° |
| 2026-04-29 04:10 | 25.08543 | 46.64862 | 6190 ft | 296 kts | 298° |
| 2026-04-29 04:11 | 25.09057 | 46.62686 | 6925 ft | 295 kts | 265° |
| 2026-04-29 04:11 | 25.08798 | 46.60458 | 7778 ft | 291 kts | 256° |
| 2026-04-29 04:11 | 25.08398 | 46.58288 | 8702 ft | 288 kts | 255° |
| 2026-04-29 04:11 | 25.07927 | 46.56142 | 9571 ft | 287 kts | 249° |
| 2026-04-29 04:12 | 25.07058 | 46.54179 | 10324 ft | 288 kts | 236° |
| 2026-04-29 04:12 | 25.05850 | 46.52311 | 10544 ft | 311 kts | 233° |
| 2026-04-29 04:12 | 25.04550 | 46.50298 | 10713 ft | 334 kts | 234° |
| 2026-04-29 04:12 | 25.03159 | 46.48110 | 10934 ft | 352 kts | 234° |
| 2026-04-29 04:13 | 25.01752 | 46.45873 | 11510 ft | 357 kts | 234° |
| 2026-04-29 04:13 | 25.00339 | 46.43620 | 12203 ft | 358 kts | 235° |
| 2026-04-29 04:13 | 24.98912 | 46.41355 | 12910 ft | 360 kts | 235° |
| 2026-04-29 04:13 | 24.97482 | 46.39085 | 13622 ft | 361 kts | 235° |
| 2026-04-29 04:14 | 24.96052 | 46.36809 | 14287 ft | 362 kts | 235° |
| 2026-04-29 04:14 | 24.94622 | 46.34532 | 14962 ft | 361 kts | 235° |
| 2026-04-29 04:14 | 24.93189 | 46.32252 | 15576 ft | 362 kts | 235° |
| 2026-04-29 04:14 | 24.91747 | 46.29963 | 16162 ft | 364 kts | 235° |
| 2026-04-29 04:15 | 24.90297 | 46.27672 | 16758 ft | 366 kts | 235° |
| 2026-04-29 04:15 | 24.88837 | 46.25372 | 17340 ft | 367 kts | 235° |
| 2026-04-29 04:15 | 24.87374 | 46.23071 | 17930 ft | 368 kts | 235° |
| 2026-04-29 04:15 | 24.85900 | 46.20754 | 18466 ft | 370 kts | 235° |
| 2026-04-29 04:16 | 24.84421 | 46.18421 | 18937 ft | 372 kts | 235° |
| 2026-04-29 04:16 | 24.82937 | 46.16078 | 19401 ft | 374 kts | 235° |
| 2026-04-29 04:16 | 24.81440 | 46.13717 | 19853 ft | 377 kts | 235° |
| 2026-04-29 04:16 | 24.79914 | 46.11310 | 20314 ft | 379 kts | 235° |
| 2026-04-29 04:17 | 24.78400 | 46.08925 | 20754 ft | 382 kts | 235° |
| 2026-04-29 04:17 | 24.76875 | 46.06525 | 21218 ft | 384 kts | 235° |
| 2026-04-29 04:17 | 24.75343 | 46.04111 | 21682 ft | 386 kts | 235° |
| 2026-04-29 04:17 | 24.73805 | 46.01686 | 22119 ft | 388 kts | 235° |
| 2026-04-29 04:18 | 24.72249 | 45.99241 | 22550 ft | 390 kts | 235° |
| 2026-04-29 04:18 | 24.70690 | 45.96798 | 22963 ft | 392 kts | 234° |
| 2026-04-29 04:18 | 24.69119 | 45.94341 | 23375 ft | 394 kts | 234° |
| 2026-04-29 04:18 | 24.67541 | 45.91872 | 23716 ft | 396 kts | 235° |
| 2026-04-29 04:19 | 24.65954 | 45.89389 | 24041 ft | 398 kts | 235° |
| 2026-04-29 04:19 | 24.64361 | 45.86893 | 24356 ft | 400 kts | 235° |
| 2026-04-29 04:19 | 24.62763 | 45.84386 | 24661 ft | 402 kts | 235° |
| 2026-04-29 04:19 | 24.61156 | 45.81863 | 24963 ft | 403 kts | 236° |
| 2026-04-29 04:20 | 24.59547 | 45.79335 | 25252 ft | 405 kts | 236° |
| 2026-04-29 04:20 | 24.57923 | 45.76786 | 25535 ft | 407 kts | 236° |
| 2026-04-29 04:20 | 24.56292 | 45.74233 | 25798 ft | 410 kts | 236° |
| 2026-04-29 04:20 | 24.54650 | 45.71665 | 26062 ft | 411 kts | 236° |
| 2026-04-29 04:21 | 24.53000 | 45.69093 | 26325 ft | 413 kts | 236° |
| 2026-04-29 04:21 | 24.51344 | 45.66513 | 26578 ft | 415 kts | 236° |
| 2026-04-29 04:21 | 24.49678 | 45.63919 | 26825 ft | 416 kts | 236° |
| 2026-04-29 04:21 | 24.48007 | 45.61318 | 27067 ft | 418 kts | 236° |
| 2026-04-29 04:22 | 24.46306 | 45.58667 | 27304 ft | 420 kts | 236° |
| 2026-04-29 04:22 | 24.44623 | 45.56043 | 27544 ft | 421 kts | 237° |
| 2026-04-29 04:22 | 24.42939 | 45.53419 | 27873 ft | 420 kts | 237° |
| 2026-04-29 04:22 | 24.41254 | 45.50802 | 28202 ft | 419 kts | 237° |
| 2026-04-29 04:23 | 24.39574 | 45.48193 | 28533 ft | 419 kts | 237° |
| 2026-04-29 04:23 | 24.37896 | 45.45587 | 28864 ft | 418 kts | 237° |
| 2026-04-29 04:23 | 24.36219 | 45.42981 | 29174 ft | 417 kts | 237° |
| 2026-04-29 04:23 | 24.34548 | 45.40382 | 29511 ft | 416 kts | 237° |
| 2026-04-29 04:24 | 24.32882 | 45.37795 | 29834 ft | 415 kts | 238° |
| 2026-04-29 04:24 | 24.31218 | 45.35213 | 30123 ft | 415 kts | 238° |
| 2026-04-29 04:24 | 24.29556 | 45.32634 | 30383 ft | 414 kts | 238° |
| 2026-04-29 04:24 | 24.27895 | 45.30061 | 30663 ft | 413 kts | 238° |
| 2026-04-29 04:25 | 24.26236 | 45.27497 | 30949 ft | 412 kts | 238° |
| 2026-04-29 04:25 | 24.24581 | 45.24938 | 31230 ft | 411 kts | 238° |
| 2026-04-29 04:25 | 24.22935 | 45.22393 | 31522 ft | 410 kts | 238° |
| 2026-04-29 04:25 | 24.21287 | 45.19845 | 31818 ft | 409 kts | 238° |
| 2026-04-29 04:26 | 24.19646 | 45.17307 | 32095 ft | 408 kts | 238° |
| 2026-04-29 04:26 | 24.18007 | 45.14772 | 32380 ft | 407 kts | 238° |
| 2026-04-29 04:26 | 24.16417 | 45.12205 | 32611 ft | 406 kts | 242° |
| 2026-04-29 04:26 | 24.15141 | 45.09462 | 32860 ft | 405 kts | 246° |
| 2026-04-29 04:27 | 24.13901 | 45.06688 | 33150 ft | 405 kts | 246° |
| 2026-04-29 04:27 | 24.12646 | 45.03898 | 33463 ft | 404 kts | 245° |
| 2026-04-29 04:27 | 24.11822 | 45.02073 | 33670 ft | 403 kts | 245° |
| 2026-04-29 04:27 | 24.10561 | 44.99288 | 33974 ft | 402 kts | 245° |
| 2026-04-29 04:28 | 24.09318 | 44.96547 | 34260 ft | 401 kts | 245° |
| 2026-04-29 04:28 | 24.08079 | 44.93814 | 34524 ft | 400 kts | 245° |
| 2026-04-29 04:28 | 24.06828 | 44.91051 | 34779 ft | 400 kts | 245° |
| 2026-04-29 04:28 | 24.05593 | 44.88328 | 35014 ft | 400 kts | 245° |
| 2026-04-29 04:29 | 24.04358 | 44.85600 | 35237 ft | 400 kts | 245° |
| 2026-04-29 04:29 | 24.03126 | 44.82875 | 35456 ft | 399 kts | 245° |
| 2026-04-29 04:29 | 24.01896 | 44.80154 | 35672 ft | 399 kts | 245° |
| 2026-04-29 04:29 | 24.00664 | 44.77430 | 35833 ft | 400 kts | 245° |
| 2026-04-29 04:30 | 23.98164 | 44.71910 | 35892 ft | 405 kts | 244° |
| 2026-04-29 04:31 | 23.94389 | 44.63606 | 35897 ft | 407 kts | 244° |
| 2026-04-29 04:31 | 23.92001 | 44.58010 | 35893 ft | 406 kts | 249° |
| 2026-04-29 04:32 | 23.89983 | 44.52252 | 35899 ft | 406 kts | 249° |
| 2026-04-29 04:32 | 23.87966 | 44.46494 | 35899 ft | 406 kts | 249° |
| 2026-04-29 04:33 | 23.85943 | 44.40734 | 35894 ft | 407 kts | 249° |
| 2026-04-29 04:33 | 23.83908 | 44.34963 | 35894 ft | 407 kts | 249° |
| 2026-04-29 04:34 | 23.81875 | 44.29199 | 35901 ft | 407 kts | 249° |
| 2026-04-29 04:34 | 23.79818 | 44.23394 | 35897 ft | 407 kts | 249° |
| 2026-04-29 04:35 | 23.77771 | 44.17626 | 35912 ft | 407 kts | 249° |
| 2026-04-29 04:35 | 23.75737 | 44.11872 | 35889 ft | 406 kts | 249° |
| 2026-04-29 04:36 | 23.73701 | 44.06109 | 35889 ft | 407 kts | 249° |
| 2026-04-29 04:36 | 23.71649 | 44.00348 | 35897 ft | 408 kts | 249° |
| 2026-04-29 04:37 | 23.69596 | 43.94583 | 35900 ft | 407 kts | 249° |
| 2026-04-29 04:37 | 23.67547 | 43.88818 | 35905 ft | 408 kts | 249° |
| 2026-04-29 04:38 | 23.65492 | 43.83058 | 35913 ft | 408 kts | 249° |
| 2026-04-29 04:38 | 23.63429 | 43.77298 | 35901 ft | 408 kts | 249° |
| 2026-04-29 04:39 | 23.61363 | 43.71540 | 35900 ft | 408 kts | 249° |
| 2026-04-29 04:39 | 23.59295 | 43.65776 | 35905 ft | 409 kts | 249° |
| 2026-04-29 04:40 | 23.57218 | 43.59962 | 35912 ft | 409 kts | 249° |
| 2026-04-29 04:40 | 23.55154 | 43.54195 | 35916 ft | 408 kts | 249° |
| 2026-04-29 04:41 | 23.53082 | 43.48439 | 35917 ft | 408 kts | 249° |
| 2026-04-29 04:41 | 23.51006 | 43.42678 | 35899 ft | 408 kts | 248° |
| 2026-04-29 04:42 | 23.48930 | 43.36919 | 35901 ft | 409 kts | 248° |
| 2026-04-29 04:42 | 23.46845 | 43.31158 | 35909 ft | 409 kts | 248° |
| 2026-04-29 04:43 | 23.44756 | 43.25395 | 35912 ft | 409 kts | 248° |
| 2026-04-29 04:43 | 23.42675 | 43.19639 | 35933 ft | 409 kts | 248° |
| 2026-04-29 04:44 | 23.40594 | 43.13884 | 35934 ft | 408 kts | 248° |
| 2026-04-29 04:44 | 23.38512 | 43.08142 | 35933 ft | 408 kts | 248° |
| 2026-04-29 04:45 | 23.36424 | 43.02409 | 35938 ft | 407 kts | 248° |
| 2026-04-29 04:45 | 23.34337 | 42.96686 | 35942 ft | 406 kts | 248° |
| 2026-04-29 04:46 | 23.32242 | 42.90938 | 35938 ft | 406 kts | 248° |
| 2026-04-29 04:46 | 23.30153 | 42.85237 | 35933 ft | 405 kts | 248° |
| 2026-04-29 04:47 | 23.28061 | 42.79540 | 35915 ft | 405 kts | 248° |
| 2026-04-29 04:47 | 23.25974 | 42.73838 | 35910 ft | 406 kts | 248° |
| 2026-04-29 04:48 | 23.23887 | 42.68127 | 35911 ft | 407 kts | 248° |
| 2026-04-29 04:48 | 23.21789 | 42.62408 | 35912 ft | 407 kts | 248° |
| 2026-04-29 04:49 | 23.19681 | 42.56696 | 35924 ft | 407 kts | 248° |
| 2026-04-29 04:49 | 23.17574 | 42.50998 | 35928 ft | 407 kts | 248° |
| 2026-04-29 04:50 | 23.15459 | 42.45253 | 35912 ft | 406 kts | 248° |
| 2026-04-29 04:50 | 23.13358 | 42.39544 | 35921 ft | 407 kts | 248° |
| 2026-04-29 04:51 | 23.11258 | 42.33835 | 35924 ft | 407 kts | 249° |
| 2026-04-29 04:51 | 23.09217 | 42.28103 | 35930 ft | 407 kts | 249° |
| 2026-04-29 04:52 | 23.07187 | 42.22354 | 35929 ft | 407 kts | 249° |
| 2026-04-29 04:52 | 23.05129 | 42.16578 | 35945 ft | 407 kts | 249° |
| 2026-04-29 04:53 | 23.03425 | 42.11826 | 35928 ft | 406 kts | 249° |
| 2026-04-29 04:53 | 23.01379 | 42.06115 | 35930 ft | 406 kts | 249° |
| 2026-04-29 04:54 | 22.99333 | 42.00408 | 35931 ft | 406 kts | 249° |
| 2026-04-29 04:54 | 22.97281 | 41.94700 | 35939 ft | 405 kts | 249° |
| 2026-04-29 04:55 | 22.95229 | 41.89010 | 35938 ft | 405 kts | 249° |
| 2026-04-29 04:55 | 22.93168 | 41.83283 | 35936 ft | 404 kts | 249° |
| 2026-04-29 04:56 | 22.91117 | 41.77602 | 35932 ft | 404 kts | 249° |
| 2026-04-29 04:56 | 22.89061 | 41.71929 | 35922 ft | 404 kts | 249° |
| 2026-04-29 04:57 | 22.87013 | 41.66251 | 35927 ft | 404 kts | 249° |
| 2026-04-29 04:57 | 22.84963 | 41.60571 | 35927 ft | 404 kts | 249° |
| 2026-04-29 04:58 | 22.82904 | 41.54894 | 35944 ft | 404 kts | 249° |
| 2026-04-29 04:58 | 22.80845 | 41.49232 | 35948 ft | 403 kts | 249° |
| 2026-04-29 04:59 | 22.78789 | 41.43584 | 35946 ft | 403 kts | 249° |
| 2026-04-29 04:59 | 22.76738 | 41.37941 | 35922 ft | 403 kts | 249° |
| 2026-04-29 05:00 | 22.74683 | 41.32289 | 35927 ft | 403 kts | 249° |
| 2026-04-29 05:00 | 22.72625 | 41.26638 | 35929 ft | 403 kts | 249° |
| 2026-04-29 05:01 | 22.70561 | 41.20989 | 35933 ft | 403 kts | 249° |
| 2026-04-29 05:01 | 22.68476 | 41.15306 | 35933 ft | 403 kts | 249° |
| 2026-04-29 05:02 | 22.66408 | 41.09666 | 35940 ft | 403 kts | 249° |
| 2026-04-29 05:02 | 22.64341 | 41.04031 | 35926 ft | 403 kts | 249° |
| 2026-04-29 05:03 | 22.62268 | 40.98387 | 35925 ft | 403 kts | 249° |
| 2026-04-29 05:03 | 22.60189 | 40.92744 | 35924 ft | 404 kts | 249° |
| 2026-04-29 05:04 | 22.58108 | 40.87097 | 35926 ft | 404 kts | 249° |
| 2026-04-29 05:04 | 22.56020 | 40.81458 | 35931 ft | 404 kts | 249° |
| 2026-04-29 05:05 | 22.53928 | 40.75824 | 35935 ft | 404 kts | 249° |
| 2026-04-29 05:05 | 22.51834 | 40.70171 | 35769 ft | 404 kts | 249° |
| 2026-04-29 05:05 | 22.50779 | 40.67312 | 35510 ft | 405 kts | 249° |
| 2026-04-29 05:06 | 22.49735 | 40.64480 | 35284 ft | 406 kts | 249° |
| 2026-04-29 05:06 | 22.48687 | 40.61647 | 35048 ft | 406 kts | 249° |
| 2026-04-29 05:06 | 22.47637 | 40.58815 | 34814 ft | 406 kts | 249° |
| 2026-04-29 05:06 | 22.46581 | 40.55976 | 34601 ft | 406 kts | 249° |
| 2026-04-29 05:07 | 22.45529 | 40.53145 | 34372 ft | 407 kts | 249° |
| 2026-04-29 05:07 | 22.44473 | 40.50308 | 34147 ft | 407 kts | 249° |
| 2026-04-29 05:07 | 22.43420 | 40.47475 | 33930 ft | 407 kts | 249° |
| 2026-04-29 05:07 | 22.42367 | 40.44640 | 33679 ft | 406 kts | 249° |
| 2026-04-29 05:08 | 22.41313 | 40.41802 | 33428 ft | 406 kts | 249° |
| 2026-04-29 05:08 | 22.40259 | 40.38967 | 33180 ft | 407 kts | 249° |
| 2026-04-29 05:08 | 22.39185 | 40.36090 | 32928 ft | 408 kts | 249° |
| 2026-04-29 05:08 | 22.38124 | 40.33250 | 32688 ft | 408 kts | 249° |
| 2026-04-29 05:09 | 22.37060 | 40.30400 | 32424 ft | 410 kts | 249° |
| 2026-04-29 05:09 | 22.35991 | 40.27535 | 31865 ft | 412 kts | 249° |
| 2026-04-29 05:09 | 22.34910 | 40.24647 | 30921 ft | 416 kts | 249° |
| 2026-04-29 05:09 | 22.33824 | 40.21741 | 30007 ft | 419 kts | 249° |
| 2026-04-29 05:10 | 22.32727 | 40.18811 | 28904 ft | 422 kts | 249° |
| 2026-04-29 05:10 | 22.31623 | 40.15866 | 27848 ft | 424 kts | 249° |
| 2026-04-29 05:10 | 22.30512 | 40.12907 | 26789 ft | 426 kts | 249° |
| 2026-04-29 05:10 | 22.29394 | 40.09931 | 25711 ft | 429 kts | 248° |
| 2026-04-29 05:11 | 22.28270 | 40.06947 | 24931 ft | 426 kts | 248° |
| 2026-04-29 05:11 | 22.27178 | 40.04048 | 24783 ft | 407 kts | 248° |
| 2026-04-29 05:11 | 22.25966 | 40.01347 | 24507 ft | 395 kts | 240° |
| 2026-04-29 05:11 | 22.24471 | 39.98870 | 24288 ft | 394 kts | 238° |
| 2026-04-29 05:12 | 22.22964 | 39.96405 | 24052 ft | 393 kts | 238° |
| 2026-04-29 05:12 | 22.21445 | 39.93921 | 23809 ft | 392 kts | 238° |
| 2026-04-29 05:12 | 22.19940 | 39.91463 | 23594 ft | 391 kts | 238° |
| 2026-04-29 05:12 | 22.18438 | 39.89010 | 23353 ft | 390 kts | 238° |
| 2026-04-29 05:13 | 22.16948 | 39.86572 | 23089 ft | 389 kts | 238° |
| 2026-04-29 05:13 | 22.15463 | 39.84139 | 22823 ft | 387 kts | 238° |
| 2026-04-29 05:13 | 22.13986 | 39.81721 | 22520 ft | 386 kts | 238° |
| 2026-04-29 05:13 | 22.12512 | 39.79310 | 21987 ft | 382 kts | 238° |
| 2026-04-29 05:14 | 22.11055 | 39.76930 | 21439 ft | 379 kts | 238° |
| 2026-04-29 05:14 | 22.09607 | 39.74569 | 20893 ft | 376 kts | 238° |
| 2026-04-29 05:14 | 22.08150 | 39.72194 | 20345 ft | 373 kts | 237° |
| 2026-04-29 05:14 | 22.06745 | 39.69903 | 19831 ft | 370 kts | 237° |
| 2026-04-29 05:15 | 22.05315 | 39.67573 | 19293 ft | 367 kts | 237° |
| 2026-04-29 05:15 | 22.03912 | 39.65287 | 18767 ft | 364 kts | 237° |
| 2026-04-29 05:15 | 22.02500 | 39.62988 | 18243 ft | 361 kts | 237° |
| 2026-04-29 05:15 | 22.01117 | 39.60737 | 17663 ft | 359 kts | 237° |
| 2026-04-29 05:16 | 21.99749 | 39.58508 | 17172 ft | 356 kts | 237° |
| 2026-04-29 05:16 | 21.98383 | 39.56285 | 16654 ft | 354 kts | 237° |
| 2026-04-29 05:16 | 21.97027 | 39.54081 | 16148 ft | 353 kts | 237° |
| 2026-04-29 05:16 | 21.95672 | 39.51883 | 15643 ft | 351 kts | 237° |
| 2026-04-29 05:17 | 21.94340 | 39.49682 | 15139 ft | 349 kts | 240° |
| 2026-04-29 05:17 | 21.93255 | 39.47315 | 14625 ft | 347 kts | 244° |
| 2026-04-29 05:17 | 21.92217 | 39.44974 | 14193 ft | 346 kts | 244° |
| 2026-04-29 05:17 | 21.91179 | 39.42637 | 13705 ft | 345 kts | 244° |
| 2026-04-29 05:18 | 21.90145 | 39.40311 | 13164 ft | 343 kts | 244° |
| 2026-04-29 05:18 | 21.89130 | 39.38029 | 12650 ft | 329 kts | 244° |
| 2026-04-29 05:18 | 21.88475 | 39.36560 | 12343 ft | 317 kts | 244° |
| 2026-04-29 05:18 | 21.87541 | 39.34468 | 11901 ft | 303 kts | 244° |
| 2026-04-29 05:19 | 21.86652 | 39.32478 | 11473 ft | 291 kts | 244° |
| 2026-04-29 05:19 | 21.85790 | 39.30554 | 11059 ft | 283 kts | 245° |
| 2026-04-29 05:19 | 21.84933 | 39.28644 | 10637 ft | 281 kts | 245° |
| 2026-04-29 05:19 | 21.84091 | 39.26765 | 10238 ft | 279 kts | 245° |
| 2026-04-29 05:20 | 21.83241 | 39.24859 | 9829 ft | 279 kts | 245° |
| 2026-04-29 05:20 | 21.82117 | 39.23160 | 9386 ft | 283 kts | 220° |
| 2026-04-29 05:20 | 21.80304 | 39.22339 | 8956 ft | 290 kts | 188° |
| 2026-04-29 05:20 | 21.78287 | 39.22547 | 8561 ft | 295 kts | 169° |
| 2026-04-29 05:21 | 21.76355 | 39.23261 | 8123 ft | 290 kts | 160° |
| 2026-04-29 05:21 | 21.74543 | 39.24132 | 7704 ft | 280 kts | 158° |
| 2026-04-29 05:21 | 21.72808 | 39.24997 | 7284 ft | 269 kts | 159° |
| 2026-04-29 05:21 | 21.71130 | 39.25794 | 6898 ft | 259 kts | 160° |
| 2026-04-29 05:22 | 21.69500 | 39.26522 | 6544 ft | 251 kts | 161° |
| 2026-04-29 05:22 | 21.67855 | 39.27221 | 6168 ft | 250 kts | 162° |
| 2026-04-29 05:22 | 21.66224 | 39.27887 | 5801 ft | 252 kts | 162° |
| 2026-04-29 05:22 | 21.64574 | 39.28548 | 5433 ft | 254 kts | 162° |
| 2026-04-29 05:23 | 21.62913 | 39.29210 | 5065 ft | 255 kts | 162° |
| 2026-04-29 05:23 | 21.61239 | 39.29871 | 4679 ft | 258 kts | 161° |
| 2026-04-29 05:23 | 21.59569 | 39.30526 | 4271 ft | 253 kts | 161° |
| 2026-04-29 05:23 | 21.57935 | 39.31165 | 3888 ft | 247 kts | 160° |
| 2026-04-29 05:24 | 21.56334 | 39.31789 | 3514 ft | 243 kts | 161° |
| 2026-04-29 05:24 | 21.54701 | 39.31986 | 3140 ft | 235 kts | 194° |
| 2026-04-29 05:24 | 21.53310 | 39.31200 | 2868 ft | 223 kts | 231° |
| 2026-04-29 05:24 | 21.52558 | 39.29836 | 2775 ft | 209 kts | 255° |
| 2026-04-29 05:25 | 21.52056 | 39.28385 | 2661 ft | 206 kts | 255° |
| 2026-04-29 05:25 | 21.51559 | 39.26950 | 2536 ft | 204 kts | 255° |
| 2026-04-29 05:25 | 21.51353 | 39.25474 | 2405 ft | 194 kts | 285° |
| 2026-04-29 05:25 | 21.51887 | 39.24205 | 2298 ft | 183 kts | 316° |
| 2026-04-29 05:26 | 21.52909 | 39.23457 | 2221 ft | 178 kts | 342° |
| 2026-04-29 05:26 | 21.54077 | 39.23002 | 2145 ft | 179 kts | 342° |
| 2026-04-29 05:26 | 21.55254 | 39.22540 | 2100 ft | 181 kts | 342° |
| 2026-04-29 05:26 | 21.56431 | 39.22077 | 2055 ft | 177 kts | 342° |
| 2026-04-29 05:27 | 21.57554 | 39.21635 | 1868 ft | 166 kts | 341° |
| 2026-04-29 05:27 | 21.59530 | 39.20856 | 1488 ft | 137 kts | 341° |
| 2026-04-29 05:27 | 21.60416 | 39.20508 | 1314 ft | 134 kts | 341° |
| 2026-04-29 05:28 | 21.61290 | 39.20164 | 1148 ft | 133 kts | 341° |
| 2026-04-29 05:28 | 21.62168 | 39.19818 | 982 ft | 134 kts | 340° |
| 2026-04-29 05:28 | 21.63038 | 39.19475 | 825 ft | 133 kts | 341° |
| 2026-04-29 05:28 | 21.63908 | 39.19133 | 670 ft | 132 kts | 342° |
| 2026-04-29 05:29 | 21.64790 | 39.18785 | 491 ft | 137 kts | 342° |
| 2026-04-29 05:29 | 21.65683 | 39.18432 | 301 ft | 136 kts | 342° |
| 2026-04-29 05:29 | 21.66562 | 39.18086 | 109 ft | 133 kts | 342° |
| 2026-04-29 05:29 | 21.67397 | 39.17753 | 32 ft | 118 kts | 342° |
| 2026-04-29 05:30 | 21.68026 | 39.17507 | 31 ft | 72 kts | 340° |
| 2026-04-29 05:30 | 21.68247 | 39.17405 | 28 ft | 24 kts | 321° |
| 2026-04-29 05:30 | 21.68363 | 39.17271 | 28 ft | 20 kts | 310° |
| 2026-04-29 05:30 | 21.68420 | 39.17200 | 29 ft | 11 kts | 311° |
| 2026-04-29 05:31 | 21.68468 | 39.17141 | 27 ft | 11 kts | 311° |
| 2026-04-29 05:31 | 21.68516 | 39.17079 | 27 ft | 9 kts | 298° |
| 2026-04-29 05:31 | 21.68508 | 39.17045 | 27 ft | 2 kts | 248° |
| 2026-04-29 05:31 | 21.68504 | 39.17036 | 27 ft | 1 kts | 248° |
| 2026-04-29 05:32 | 21.68499 | 39.17021 | 27 ft | 7 kts | 245° |
| 2026-04-29 05:32 | 21.68461 | 39.17001 | 28 ft | 9 kts | 179° |
| 2026-04-29 05:32 | 21.68378 | 39.17031 | 30 ft | 13 kts | 160° |
| 2026-04-29 05:32 | 21.68298 | 39.17061 | 30 ft | 12 kts | 160° |
| 2026-04-29 05:33 | 21.68223 | 39.17090 | 29 ft | 11 kts | 160° |
| 2026-04-29 05:33 | 21.68153 | 39.17117 | 30 ft | 10 kts | 160° |
| 2026-04-29 05:33 | 21.68098 | 39.17139 | 31 ft | 8 kts | 160° |
| 2026-04-29 05:33 | 21.68040 | 39.17162 | 30 ft | 10 kts | 159° |
| 2026-04-29 05:34 | 21.67980 | 39.17186 | 30 ft | 9 kts | 159° |
| 2026-04-29 05:34 | 21.67926 | 39.17209 | 30 ft | 8 kts | 159° |
| 2026-04-29 05:34 | 21.67877 | 39.17214 | 30 ft | 6 kts | 199° |
| 2026-04-29 05:34 | 21.67850 | 39.17181 | 30 ft | 5 kts | 240° |
| 2026-04-29 05:35 | 21.67835 | 39.17142 | 30 ft | 6 kts | 249° |
| 2026-04-29 05:35 | 21.67822 | 39.17103 | 30 ft | 6 kts | 250° |
| 2026-04-29 05:35 | 21.67798 | 39.17035 | 30 ft | 13 kts | 250° |
| 2026-04-29 05:35 | 21.67769 | 39.16949 | 30 ft | 12 kts | 250° |
| 2026-04-29 05:36 | 21.67743 | 39.16870 | 30 ft | 11 kts | 250° |
| 2026-04-29 05:36 | 21.67716 | 39.16800 | 30 ft | 10 kts | 248° |
| 2026-04-29 05:36 | 21.67693 | 39.16736 | 30 ft | 9 kts | 249° |
| 2026-04-29 05:36 | 21.67674 | 39.16679 | 30 ft | 8 kts | 250° |
| 2026-04-29 05:37 | 21.67648 | 39.16600 | 30 ft | 13 kts | 250° |
| 2026-04-29 05:37 | 21.67619 | 39.16516 | 30 ft | 11 kts | 250° |
| 2026-04-29 05:37 | 21.67593 | 39.16439 | 30 ft | 10 kts | 250° |
| 2026-04-29 05:37 | 21.67570 | 39.16371 | 30 ft | 9 kts | 250° |
| 2026-04-29 05:38 | 21.67548 | 39.16308 | 30 ft | 8 kts | 250° |
| 2026-04-29 05:38 | 21.67522 | 39.16255 | 30 ft | 9 kts | 217° |
| 2026-04-29 05:38 | 21.67451 | 39.16262 | 30 ft | 11 kts | 157° |
| 2026-04-29 05:38 | 21.67385 | 39.16289 | 30 ft | 10 kts | 160° |
| 2026-04-29 05:39 | 21.67325 | 39.16313 | 30 ft | 9 kts | 160° |
| 2026-04-29 05:39 | 21.67271 | 39.16334 | 31 ft | 8 kts | 160° |
| 2026-04-29 05:39 | 21.67212 | 39.16357 | 31 ft | 13 kts | 160° |
| 2026-04-29 05:39 | 21.67106 | 39.16397 | 31 ft | 16 kts | 160° |
| 2026-04-29 05:40 | 21.67006 | 39.16435 | 31 ft | 15 kts | 160° |
| 2026-04-29 05:40 | 21.66914 | 39.16471 | 31 ft | 13 kts | 160° |
| 2026-04-29 05:40 | 21.66830 | 39.16504 | 31 ft | 13 kts | 160° |
| 2026-04-29 05:40 | 21.66776 | 39.16525 | 31 ft | 12 kts | 160° |
| 2026-04-29 05:41 | 21.66701 | 39.16555 | 31 ft | 11 kts | 160° |
| 2026-04-29 05:41 | 21.66624 | 39.16586 | 31 ft | 12 kts | 159° |
| 2026-04-29 05:41 | 21.66546 | 39.16617 | 31 ft | 11 kts | 160° |
| 2026-04-29 05:41 | 21.66476 | 39.16645 | 31 ft | 10 kts | 160° |
| 2026-04-29 05:42 | 21.66410 | 39.16671 | 31 ft | 10 kts | 160° |
| 2026-04-29 05:42 | 21.66351 | 39.16696 | 31 ft | 8 kts | 149° |
| 2026-04-29 05:42 | 21.66338 | 39.16747 | 31 ft | 7 kts | 75° |
| 2026-04-29 05:42 | 21.66355 | 39.16794 | 31 ft | 7 kts | 68° |
| 2026-04-29 05:43 | 21.66377 | 39.16852 | 31 ft | 9 kts | 69° |
| 2026-04-29 05:43 | 21.66401 | 39.16896 | 31 ft | 5 kts | 25° |
| 2026-04-29 05:43 | 21.66429 | 39.16892 | 31 ft | 0 kts | 339° |
| 2026-04-29 05:43 | 21.66430 | 39.16892 | 31 ft | 1 kts | 339° |
| 2026-04-29 05:44 | 21.66436 | 39.16889 | 30 ft | 1 kts | 339° |
| 2026-04-29 05:44 | 21.66452 | 39.16883 | 31 ft | 2 kts | 340° |
| 2026-04-29 05:44 | 21.66459 | 39.16881 | 31 ft | 0 kts | 340° |